sensor_id;sensor_type;location;lat;lon;timestamp;temperature;humidity
72905;DHT22;61048;52.162;4.516;2023-07-31T00:02:00;21.80;63.20
72905;DHT22;61048;52.162;4.516;2023-07-31T00:04:27;21.80;63.60
72905;DHT22;61048;52.162;4.516;2023-07-31T00:06:54;21.80;63.40
72905;DHT22;61048;52.162;4.516;2023-07-31T00:09:22;21.80;63.50
72905;DHT22;61048;52.162;4.516;2023-07-31T00:11:49;21.80;63.30
72905;DHT22;61048;52.162;4.516;2023-07-31T00:14:16;21.80;63.40
72905;DHT22;61048;52.162;4.516;2023-07-31T00:16:43;21.80;63.40
72905;DHT22;61048;52.162;4.516;2023-07-31T00:19:10;21.80;63.40
72905;DHT22;61048;52.162;4.516;2023-07-31T00:21:37;21.80;63.50
72905;DHT22;61048;52.162;4.516;2023-07-31T00:24:04;21.80;63.50
72905;DHT22;61048;52.162;4.516;2023-07-31T00:26:32;21.80;63.50
72905;DHT22;61048;52.162;4.516;2023-07-31T00:29:01;21.80;63.50
72905;DHT22;61048;52.162;4.516;2023-07-31T00:31:28;21.80;63.80
72905;DHT22;61048;52.162;4.516;2023-07-31T00:33:57;21.80;63.70
72905;DHT22;61048;52.162;4.516;2023-07-31T00:36:24;21.80;63.90
72905;DHT22;61048;52.162;4.516;2023-07-31T00:38:51;21.80;64.10
72905;DHT22;61048;52.162;4.516;2023-07-31T00:41:18;21.80;64.00
72905;DHT22;61048;52.162;4.516;2023-07-31T00:43:47;21.80;63.90
72905;DHT22;61048;52.162;4.516;2023-07-31T00:46:14;21.80;63.70
72905;DHT22;61048;52.162;4.516;2023-07-31T00:48:41;21.80;63.60
72905;DHT22;61048;52.162;4.516;2023-07-31T00:51:08;21.80;63.60
72905;DHT22;61048;52.162;4.516;2023-07-31T00:53:35;21.70;63.60
72905;DHT22;61048;52.162;4.516;2023-07-31T00:56:03;21.70;63.50
72905;DHT22;61048;52.162;4.516;2023-07-31T00:58:31;21.80;63.60
72905;DHT22;61048;52.162;4.516;2023-07-31T01:00:59;21.70;63.50
72905;DHT22;61048;52.162;4.516;2023-07-31T01:03:26;21.80;63.70
72905;DHT22;61048;52.162;4.516;2023-07-31T01:06:01;21.70;63.50
72905;DHT22;61048;52.162;4.516;2023-07-31T01:08:42;21.70;63.70
72905;DHT22;61048;52.162;4.516;2023-07-31T01:11:15;21.70;63.90
72905;DHT22;61048;52.162;4.516;2023-07-31T01:13:44;21.70;63.80
72905;DHT22;61048;52.162;4.516;2023-07-31T01:16:15;21.70;63.90
72905;DHT22;61048;52.162;4.516;2023-07-31T01:18:42;21.70;64.00
72905;DHT22;61048;52.162;4.516;2023-07-31T01:21:29;21.70;64.10
72905;DHT22;61048;52.162;4.516;2023-07-31T01:24:21;21.70;64.00
72905;DHT22;61048;52.162;4.516;2023-07-31T01:26:56;21.70;63.90
72905;DHT22;61048;52.162;4.516;2023-07-31T01:29:32;21.70;63.90
72905;DHT22;61048;52.162;4.516;2023-07-31T01:32:02;21.70;64.00
72905;DHT22;61048;52.162;4.516;2023-07-31T01:34:29;21.70;64.00
72905;DHT22;61048;52.162;4.516;2023-07-31T01:36:57;21.70;63.80
72905;DHT22;61048;52.162;4.516;2023-07-31T01:39:24;21.70;63.80
72905;DHT22;61048;52.162;4.516;2023-07-31T01:41:53;21.70;64.00
72905;DHT22;61048;52.162;4.516;2023-07-31T01:44:20;21.70;63.90
72905;DHT22;61048;52.162;4.516;2023-07-31T01:46:47;21.70;63.90
72905;DHT22;61048;52.162;4.516;2023-07-31T01:49:16;21.70;63.80
72905;DHT22;61048;52.162;4.516;2023-07-31T01:51:43;21.70;63.90
72905;DHT22;61048;52.162;4.516;2023-07-31T01:54:10;21.70;63.90
72905;DHT22;61048;52.162;4.516;2023-07-31T01:56:37;21.70;63.90
72905;DHT22;61048;52.162;4.516;2023-07-31T01:59:06;21.70;63.90
72905;DHT22;61048;52.162;4.516;2023-07-31T02:01:33;21.70;64.00
72905;DHT22;61048;52.162;4.516;2023-07-31T02:03:59;21.70;64.10
72905;DHT22;61048;52.162;4.516;2023-07-31T02:06:27;21.70;64.10
72905;DHT22;61048;52.162;4.516;2023-07-31T02:08:53;21.70;64.20
72905;DHT22;61048;52.162;4.516;2023-07-31T02:11:22;21.70;64.10
72905;DHT22;61048;52.162;4.516;2023-07-31T02:13:49;21.70;64.20
72905;DHT22;61048;52.162;4.516;2023-07-31T02:16:17;21.70;64.00
72905;DHT22;61048;52.162;4.516;2023-07-31T02:18:44;21.70;63.90
72905;DHT22;61048;52.162;4.516;2023-07-31T02:21:11;21.70;63.90
72905;DHT22;61048;52.162;4.516;2023-07-31T02:23:38;21.70;63.90
72905;DHT22;61048;52.162;4.516;2023-07-31T02:26:05;21.70;64.10
72905;DHT22;61048;52.162;4.516;2023-07-31T02:28:32;21.70;64.00
72905;DHT22;61048;52.162;4.516;2023-07-31T02:30:58;21.70;64.00
72905;DHT22;61048;52.162;4.516;2023-07-31T02:33:27;21.70;63.90
72905;DHT22;61048;52.162;4.516;2023-07-31T02:35:54;21.60;64.10
72905;DHT22;61048;52.162;4.516;2023-07-31T02:38:21;21.70;63.90
72905;DHT22;61048;52.162;4.516;2023-07-31T02:40:48;21.70;64.00
72905;DHT22;61048;52.162;4.516;2023-07-31T02:43:15;21.70;63.90
72905;DHT22;61048;52.162;4.516;2023-07-31T02:45:41;21.70;64.00
72905;DHT22;61048;52.162;4.516;2023-07-31T02:48:08;21.60;63.90
72905;DHT22;61048;52.162;4.516;2023-07-31T02:50:37;21.70;63.90
72905;DHT22;61048;52.162;4.516;2023-07-31T02:53:03;21.70;64.00
72905;DHT22;61048;52.162;4.516;2023-07-31T02:55:30;21.60;64.10
72905;DHT22;61048;52.162;4.516;2023-07-31T02:57:57;21.60;63.90
72905;DHT22;61048;52.162;4.516;2023-07-31T03:00:25;21.60;63.90
72905;DHT22;61048;52.162;4.516;2023-07-31T03:02:52;21.60;63.90
72905;DHT22;61048;52.162;4.516;2023-07-31T03:05:18;21.60;63.90
72905;DHT22;61048;52.162;4.516;2023-07-31T03:07:47;21.60;63.90
72905;DHT22;61048;52.162;4.516;2023-07-31T03:10:14;21.60;63.80
72905;DHT22;61048;52.162;4.516;2023-07-31T03:12:41;21.60;63.90
72905;DHT22;61048;52.162;4.516;2023-07-31T03:15:09;21.60;63.90
72905;DHT22;61048;52.162;4.516;2023-07-31T03:17:36;21.60;63.90
72905;DHT22;61048;52.162;4.516;2023-07-31T03:20:03;21.60;63.90
72905;DHT22;61048;52.162;4.516;2023-07-31T03:22:31;21.60;63.80
72905;DHT22;61048;52.162;4.516;2023-07-31T03:24:59;21.60;63.70
72905;DHT22;61048;52.162;4.516;2023-07-31T03:27:26;21.60;63.70
72905;DHT22;61048;52.162;4.516;2023-07-31T03:29:53;21.60;63.80
72905;DHT22;61048;52.162;4.516;2023-07-31T03:32:20;21.60;63.70
72905;DHT22;61048;52.162;4.516;2023-07-31T03:34:47;21.60;63.70
72905;DHT22;61048;52.162;4.516;2023-07-31T03:37:13;21.60;63.80
72905;DHT22;61048;52.162;4.516;2023-07-31T03:39:40;21.60;63.80
72905;DHT22;61048;52.162;4.516;2023-07-31T03:42:09;21.60;63.80
72905;DHT22;61048;52.162;4.516;2023-07-31T03:44:36;21.60;63.90
72905;DHT22;61048;52.162;4.516;2023-07-31T03:47:03;21.60;64.00
72905;DHT22;61048;52.162;4.516;2023-07-31T03:49:30;21.60;64.10
72905;DHT22;61048;52.162;4.516;2023-07-31T03:51:57;21.60;64.00
72905;DHT22;61048;52.162;4.516;2023-07-31T03:54:24;21.60;64.00
72905;DHT22;61048;52.162;4.516;2023-07-31T03:56:51;21.60;63.90
72905;DHT22;61048;52.162;4.516;2023-07-31T03:59:19;21.50;63.80
72905;DHT22;61048;52.162;4.516;2023-07-31T04:01:46;21.50;64.00
72905;DHT22;61048;52.162;4.516;2023-07-31T04:04:15;21.50;63.90
72905;DHT22;61048;52.162;4.516;2023-07-31T04:06:42;21.50;63.90
72905;DHT22;61048;52.162;4.516;2023-07-31T04:09:09;21.50;64.00
72905;DHT22;61048;52.162;4.516;2023-07-31T04:11:35;21.50;64.00
72905;DHT22;61048;52.162;4.516;2023-07-31T04:14:02;21.50;64.00
72905;DHT22;61048;52.162;4.516;2023-07-31T04:16:31;21.50;64.00
72905;DHT22;61048;52.162;4.516;2023-07-31T04:18:58;21.50;64.00
72905;DHT22;61048;52.162;4.516;2023-07-31T04:21:24;21.50;64.00
72905;DHT22;61048;52.162;4.516;2023-07-31T04:23:51;21.50;63.90
72905;DHT22;61048;52.162;4.516;2023-07-31T04:26:21;21.50;64.00
72905;DHT22;61048;52.162;4.516;2023-07-31T04:28:48;21.50;63.90
72905;DHT22;61048;52.162;4.516;2023-07-31T04:31:15;21.50;63.90
72905;DHT22;61048;52.162;4.516;2023-07-31T04:33:43;21.50;63.90
72905;DHT22;61048;52.162;4.516;2023-07-31T04:36:10;21.50;64.00
72905;DHT22;61048;52.162;4.516;2023-07-31T04:38:37;21.50;63.90
72905;DHT22;61048;52.162;4.516;2023-07-31T04:41:04;21.50;64.00
72905;DHT22;61048;52.162;4.516;2023-07-31T04:43:31;21.50;63.90
72905;DHT22;61048;52.162;4.516;2023-07-31T04:45:58;21.50;64.00
72905;DHT22;61048;52.162;4.516;2023-07-31T04:48:25;21.50;64.00
72905;DHT22;61048;52.162;4.516;2023-07-31T04:50:53;21.50;64.10
72905;DHT22;61048;52.162;4.516;2023-07-31T04:53:20;21.50;64.10
72905;DHT22;61048;52.162;4.516;2023-07-31T04:55:47;21.50;64.30
72905;DHT22;61048;52.162;4.516;2023-07-31T04:58:14;21.50;64.10
72905;DHT22;61048;52.162;4.516;2023-07-31T05:00:40;21.50;64.20
72905;DHT22;61048;52.162;4.516;2023-07-31T06:31:41;21.90;65.10
72905;DHT22;61048;52.162;4.516;2023-07-31T06:34:09;21.50;65.80
72905;DHT22;61048;52.162;4.516;2023-07-31T06:36:36;21.50;66.00
72905;DHT22;61048;52.162;4.516;2023-07-31T06:39:03;21.50;65.80
72905;DHT22;61048;52.162;4.516;2023-07-31T06:41:30;21.50;65.80
72905;DHT22;61048;52.162;4.516;2023-07-31T06:43:57;21.50;66.00
72905;DHT22;61048;52.162;4.516;2023-07-31T06:46:25;21.50;66.10
72905;DHT22;61048;52.162;4.516;2023-07-31T06:48:52;21.50;66.10
72905;DHT22;61048;52.162;4.516;2023-07-31T06:51:20;21.50;65.90
72905;DHT22;61048;52.162;4.516;2023-07-31T06:53:47;21.50;66.00
72905;DHT22;61048;52.162;4.516;2023-07-31T06:56:14;21.50;66.20
72905;DHT22;61048;52.162;4.516;2023-07-31T06:58:40;21.50;66.20
72905;DHT22;61048;52.162;4.516;2023-07-31T07:01:07;21.50;66.10
72905;DHT22;61048;52.162;4.516;2023-07-31T07:03:34;21.50;66.60
72905;DHT22;61048;52.162;4.516;2023-07-31T07:06:01;21.50;66.20
72905;DHT22;61048;52.162;4.516;2023-07-31T07:08:30;21.50;66.00
72905;DHT22;61048;52.162;4.516;2023-07-31T07:10:57;21.50;66.40
72905;DHT22;61048;52.162;4.516;2023-07-31T07:13:24;21.50;66.30
72905;DHT22;61048;52.162;4.516;2023-07-31T07:15:51;21.50;66.50
72905;DHT22;61048;52.162;4.516;2023-07-31T07:18:18;21.50;66.30
72905;DHT22;61048;52.162;4.516;2023-07-31T07:20:47;21.50;66.70
72905;DHT22;61048;52.162;4.516;2023-07-31T07:23:14;21.50;66.50
72905;DHT22;61048;52.162;4.516;2023-07-31T07:25:43;21.50;66.60
72905;DHT22;61048;52.162;4.516;2023-07-31T07:28:10;21.50;66.60
72905;DHT22;61048;52.162;4.516;2023-07-31T07:30:37;21.50;66.60
72905;DHT22;61048;52.162;4.516;2023-07-31T07:33:05;21.50;66.60
72905;DHT22;61048;52.162;4.516;2023-07-31T07:35:33;21.50;66.50
72905;DHT22;61048;52.162;4.516;2023-07-31T07:38:00;21.50;66.70
72905;DHT22;61048;52.162;4.516;2023-07-31T07:40:27;21.50;66.60
72905;DHT22;61048;52.162;4.516;2023-07-31T07:42:56;21.50;67.10
72905;DHT22;61048;52.162;4.516;2023-07-31T07:45:26;21.50;66.80
72905;DHT22;61048;52.162;4.516;2023-07-31T07:47:53;21.50;66.80
72905;DHT22;61048;52.162;4.516;2023-07-31T07:50:21;21.50;67.00
72905;DHT22;61048;52.162;4.516;2023-07-31T07:52:47;21.50;66.90
72905;DHT22;61048;52.162;4.516;2023-07-31T07:55:14;21.50;67.10
72905;DHT22;61048;52.162;4.516;2023-07-31T07:57:41;21.50;67.10
72905;DHT22;61048;52.162;4.516;2023-07-31T08:00:13;21.50;66.90
72905;DHT22;61048;52.162;4.516;2023-07-31T08:02:40;21.50;67.10
72905;DHT22;61048;52.162;4.516;2023-07-31T08:05:08;21.50;67.30
72905;DHT22;61048;52.162;4.516;2023-07-31T08:07:35;21.50;67.20
72905;DHT22;61048;52.162;4.516;2023-07-31T08:10:02;21.50;67.20
72905;DHT22;61048;52.162;4.516;2023-07-31T08:12:29;21.50;67.30
72905;DHT22;61048;52.162;4.516;2023-07-31T08:14:55;21.50;67.60
72905;DHT22;61048;52.162;4.516;2023-07-31T08:17:24;21.50;67.50
72905;DHT22;61048;52.162;4.516;2023-07-31T08:19:51;21.50;67.60
72905;DHT22;61048;52.162;4.516;2023-07-31T08:22:17;21.50;67.70
72905;DHT22;61048;52.162;4.516;2023-07-31T08:24:44;21.50;67.70
72905;DHT22;61048;52.162;4.516;2023-07-31T08:27:11;21.50;67.50
72905;DHT22;61048;52.162;4.516;2023-07-31T08:29:38;21.60;67.50
72905;DHT22;61048;52.162;4.516;2023-07-31T08:32:06;21.60;67.70
72905;DHT22;61048;52.162;4.516;2023-07-31T08:34:34;21.60;67.60
72905;DHT22;61048;52.162;4.516;2023-07-31T08:37:01;21.50;67.80
72905;DHT22;61048;52.162;4.516;2023-07-31T08:39:28;21.50;67.70
72905;DHT22;61048;52.162;4.516;2023-07-31T08:41:58;21.50;67.70
72905;DHT22;61048;52.162;4.516;2023-07-31T08:44:25;21.60;67.70
72905;DHT22;61048;52.162;4.516;2023-07-31T08:46:53;21.50;67.70
72905;DHT22;61048;52.162;4.516;2023-07-31T08:49:20;21.60;67.70
72905;DHT22;61048;52.162;4.516;2023-07-31T08:51:50;21.60;67.70
72905;DHT22;61048;52.162;4.516;2023-07-31T08:54:17;21.60;67.70
72905;DHT22;61048;52.162;4.516;2023-07-31T08:56:44;21.60;67.80
72905;DHT22;61048;52.162;4.516;2023-07-31T08:59:11;21.60;67.80
72905;DHT22;61048;52.162;4.516;2023-07-31T09:01:43;21.60;67.80
72905;DHT22;61048;52.162;4.516;2023-07-31T09:04:14;21.60;67.70
72905;DHT22;61048;52.162;4.516;2023-07-31T09:06:42;21.60;67.80
72905;DHT22;61048;52.162;4.516;2023-07-31T09:09:12;21.60;67.80
72905;DHT22;61048;52.162;4.516;2023-07-31T09:11:39;21.60;67.70
72905;DHT22;61048;52.162;4.516;2023-07-31T09:14:08;21.60;67.60
72905;DHT22;61048;52.162;4.516;2023-07-31T09:16:51;21.60;67.70
72905;DHT22;61048;52.162;4.516;2023-07-31T09:19:25;21.60;67.60
72905;DHT22;61048;52.162;4.516;2023-07-31T09:21:52;21.60;67.70
72905;DHT22;61048;52.162;4.516;2023-07-31T09:24:27;21.60;67.80
72905;DHT22;61048;52.162;4.516;2023-07-31T09:26:54;21.60;67.80
72905;DHT22;61048;52.162;4.516;2023-07-31T09:29:22;21.60;67.80
72905;DHT22;61048;52.162;4.516;2023-07-31T09:31:50;21.60;67.80
72905;DHT22;61048;52.162;4.516;2023-07-31T09:34:18;21.60;67.80
72905;DHT22;61048;52.162;4.516;2023-07-31T09:36:46;21.60;67.80
72905;DHT22;61048;52.162;4.516;2023-07-31T09:39:15;21.60;67.80
72905;DHT22;61048;52.162;4.516;2023-07-31T09:41:44;21.60;67.80
72905;DHT22;61048;52.162;4.516;2023-07-31T09:44:12;21.60;67.60
72905;DHT22;61048;52.162;4.516;2023-07-31T09:46:42;21.60;67.70
72905;DHT22;61048;52.162;4.516;2023-07-31T09:49:10;21.60;67.60
72905;DHT22;61048;52.162;4.516;2023-07-31T09:51:37;21.60;67.70
72905;DHT22;61048;52.162;4.516;2023-07-31T09:54:10;21.60;67.60
72905;DHT22;61048;52.162;4.516;2023-07-31T09:56:43;21.60;67.60
72905;DHT22;61048;52.162;4.516;2023-07-31T09:59:12;21.60;67.60
72905;DHT22;61048;52.162;4.516;2023-07-31T10:01:40;21.60;67.50
72905;DHT22;61048;52.162;4.516;2023-07-31T10:04:08;21.60;67.60
72905;DHT22;61048;52.162;4.516;2023-07-31T10:06:36;21.60;67.50
72905;DHT22;61048;52.162;4.516;2023-07-31T10:09:06;21.60;67.60
72905;DHT22;61048;52.162;4.516;2023-07-31T10:11:38;21.60;67.60
72905;DHT22;61048;52.162;4.516;2023-07-31T10:14:07;21.60;67.60
72905;DHT22;61048;52.162;4.516;2023-07-31T10:16:38;21.70;67.50
72905;DHT22;61048;52.162;4.516;2023-07-31T10:19:06;21.70;67.70
72905;DHT22;61048;52.162;4.516;2023-07-31T10:21:35;21.70;67.50
72905;DHT22;61048;52.162;4.516;2023-07-31T10:24:04;21.70;67.60
72905;DHT22;61048;52.162;4.516;2023-07-31T10:26:32;21.70;67.60
72905;DHT22;61048;52.162;4.516;2023-07-31T10:28:59;21.70;67.60
72905;DHT22;61048;52.162;4.516;2023-07-31T10:31:28;21.70;67.50
72905;DHT22;61048;52.162;4.516;2023-07-31T10:33:57;21.70;67.50
72905;DHT22;61048;52.162;4.516;2023-07-31T10:36:26;21.80;67.50
72905;DHT22;61048;52.162;4.516;2023-07-31T10:38:55;21.70;67.50
72905;DHT22;61048;52.162;4.516;2023-07-31T10:41:28;21.80;67.50
72905;DHT22;61048;52.162;4.516;2023-07-31T10:43:57;21.80;67.50
72905;DHT22;61048;52.162;4.516;2023-07-31T10:46:24;21.80;67.40
72905;DHT22;61048;52.162;4.516;2023-07-31T10:48:59;21.80;67.30
72905;DHT22;61048;52.162;4.516;2023-07-31T10:51:33;21.80;67.20
72905;DHT22;61048;52.162;4.516;2023-07-31T10:54:11;21.80;67.20
72905;DHT22;61048;52.162;4.516;2023-07-31T10:56:38;21.80;67.20
72905;DHT22;61048;52.162;4.516;2023-07-31T10:59:05;21.80;67.20
72905;DHT22;61048;52.162;4.516;2023-07-31T11:01:50;21.80;67.20
72905;DHT22;61048;52.162;4.516;2023-07-31T11:04:23;21.90;67.20
72905;DHT22;61048;52.162;4.516;2023-07-31T11:06:57;21.90;67.10
72905;DHT22;61048;52.162;4.516;2023-07-31T11:09:27;21.90;67.10
72905;DHT22;61048;52.162;4.516;2023-07-31T11:11:56;21.90;67.10
72905;DHT22;61048;52.162;4.516;2023-07-31T11:14:23;21.90;66.90
72905;DHT22;61048;52.162;4.516;2023-07-31T11:16:51;21.90;67.10
72905;DHT22;61048;52.162;4.516;2023-07-31T11:19:23;21.90;67.00
72905;DHT22;61048;52.162;4.516;2023-07-31T11:21:51;21.90;66.90
72905;DHT22;61048;52.162;4.516;2023-07-31T11:24:19;21.90;66.90
72905;DHT22;61048;52.162;4.516;2023-07-31T11:26:50;22.00;67.00
72905;DHT22;61048;52.162;4.516;2023-07-31T11:29:17;22.00;67.00
72905;DHT22;61048;52.162;4.516;2023-07-31T11:31:44;22.00;67.10
72905;DHT22;61048;52.162;4.516;2023-07-31T11:34:12;22.00;66.80
72905;DHT22;61048;52.162;4.516;2023-07-31T11:36:40;22.00;66.90
72905;DHT22;61048;52.162;4.516;2023-07-31T11:39:08;22.10;66.60
72905;DHT22;61048;52.162;4.516;2023-07-31T11:41:35;22.00;66.50
72905;DHT22;61048;52.162;4.516;2023-07-31T11:44:05;22.10;66.70
72905;DHT22;61048;52.162;4.516;2023-07-31T11:46:32;22.10;66.70
72905;DHT22;61048;52.162;4.516;2023-07-31T11:49:00;22.10;66.60
72905;DHT22;61048;52.162;4.516;2023-07-31T11:51:27;22.10;66.80
72905;DHT22;61048;52.162;4.516;2023-07-31T11:53:59;22.10;66.70
72905;DHT22;61048;52.162;4.516;2023-07-31T11:56:27;22.10;66.70
72905;DHT22;61048;52.162;4.516;2023-07-31T11:58:59;22.10;66.60
72905;DHT22;61048;52.162;4.516;2023-07-31T12:01:28;22.10;66.50
72905;DHT22;61048;52.162;4.516;2023-07-31T12:03:56;22.00;66.50
72905;DHT22;61048;52.162;4.516;2023-07-31T12:06:32;22.00;66.50
72905;DHT22;61048;52.162;4.516;2023-07-31T12:09:03;22.00;66.50
72905;DHT22;61048;52.162;4.516;2023-07-31T12:11:30;22.00;66.40
72905;DHT22;61048;52.162;4.516;2023-07-31T12:13:57;22.10;66.30
72905;DHT22;61048;52.162;4.516;2023-07-31T12:16:26;22.00;66.40
72905;DHT22;61048;52.162;4.516;2023-07-31T12:18:54;22.10;66.40
72905;DHT22;61048;52.162;4.516;2023-07-31T12:21:21;22.10;66.40
72905;DHT22;61048;52.162;4.516;2023-07-31T12:23:48;22.10;66.30
72905;DHT22;61048;52.162;4.516;2023-07-31T12:26:17;22.10;66.30
72905;DHT22;61048;52.162;4.516;2023-07-31T12:28:45;22.10;66.40
72905;DHT22;61048;52.162;4.516;2023-07-31T12:31:13;22.10;66.20
72905;DHT22;61048;52.162;4.516;2023-07-31T12:33:41;22.10;66.30
72905;DHT22;61048;52.162;4.516;2023-07-31T12:36:10;22.10;66.30
72905;DHT22;61048;52.162;4.516;2023-07-31T12:38:37;22.10;66.30
72905;DHT22;61048;52.162;4.516;2023-07-31T12:41:04;22.10;66.30
72905;DHT22;61048;52.162;4.516;2023-07-31T12:43:33;22.10;66.40
72905;DHT22;61048;52.162;4.516;2023-07-31T12:46:00;22.20;66.30
72905;DHT22;61048;52.162;4.516;2023-07-31T12:48:27;22.20;66.20
72905;DHT22;61048;52.162;4.516;2023-07-31T12:50:54;22.20;66.00
72905;DHT22;61048;52.162;4.516;2023-07-31T12:53:21;22.20;66.10
72905;DHT22;61048;52.162;4.516;2023-07-31T12:55:48;22.20;66.00
72905;DHT22;61048;52.162;4.516;2023-07-31T12:58:15;22.30;65.90
72905;DHT22;61048;52.162;4.516;2023-07-31T13:00:44;22.30;65.90
72905;DHT22;61048;52.162;4.516;2023-07-31T13:03:11;22.30;65.90
72905;DHT22;61048;52.162;4.516;2023-07-31T13:05:38;22.30;65.80
72905;DHT22;61048;52.162;4.516;2023-07-31T13:08:04;22.30;66.00
72905;DHT22;61048;52.162;4.516;2023-07-31T13:10:31;22.30;65.90
72905;DHT22;61048;52.162;4.516;2023-07-31T13:12:58;22.30;65.80
72905;DHT22;61048;52.162;4.516;2023-07-31T13:15:25;22.30;65.80
72905;DHT22;61048;52.162;4.516;2023-07-31T13:17:53;22.30;65.80
72905;DHT22;61048;52.162;4.516;2023-07-31T13:20:22;22.30;65.80
72905;DHT22;61048;52.162;4.516;2023-07-31T13:22:49;22.30;65.90
72905;DHT22;61048;52.162;4.516;2023-07-31T13:25:16;22.30;66.30
72905;DHT22;61048;52.162;4.516;2023-07-31T13:27:43;22.30;66.20
72905;DHT22;61048;52.162;4.516;2023-07-31T13:30:10;22.30;66.30
72905;DHT22;61048;52.162;4.516;2023-07-31T13:32:37;22.30;66.40
72905;DHT22;61048;52.162;4.516;2023-07-31T13:35:06;22.20;66.40
72905;DHT22;61048;52.162;4.516;2023-07-31T13:37:33;22.30;66.40
72905;DHT22;61048;52.162;4.516;2023-07-31T13:40:00;22.30;66.50
72905;DHT22;61048;52.162;4.516;2023-07-31T13:42:30;22.30;66.70
72905;DHT22;61048;52.162;4.516;2023-07-31T13:44:57;22.30;66.80
72905;DHT22;61048;52.162;4.516;2023-07-31T13:47:24;22.30;66.80
72905;DHT22;61048;52.162;4.516;2023-07-31T13:49:50;22.30;66.60
72905;DHT22;61048;52.162;4.516;2023-07-31T13:52:19;22.30;66.70
72905;DHT22;61048;52.162;4.516;2023-07-31T13:54:46;22.30;66.80
72905;DHT22;61048;52.162;4.516;2023-07-31T13:57:15;22.30;66.60
72905;DHT22;61048;52.162;4.516;2023-07-31T13:59:43;22.30;66.70
72905;DHT22;61048;52.162;4.516;2023-07-31T14:02:09;22.30;66.50
72905;DHT22;61048;52.162;4.516;2023-07-31T14:04:36;22.20;66.50
72905;DHT22;61048;52.162;4.516;2023-07-31T14:07:04;22.20;66.60
72905;DHT22;61048;52.162;4.516;2023-07-31T14:09:32;22.20;66.60
72905;DHT22;61048;52.162;4.516;2023-07-31T14:11:59;22.20;66.60
72905;DHT22;61048;52.162;4.516;2023-07-31T14:14:26;22.20;66.60
72905;DHT22;61048;52.162;4.516;2023-07-31T14:16:53;22.30;66.40
72905;DHT22;61048;52.162;4.516;2023-07-31T14:19:20;22.20;66.60
72905;DHT22;61048;52.162;4.516;2023-07-31T14:21:47;22.20;66.50
72905;DHT22;61048;52.162;4.516;2023-07-31T14:24:13;22.20;66.40
72905;DHT22;61048;52.162;4.516;2023-07-31T14:26:42;22.20;66.50
72905;DHT22;61048;52.162;4.516;2023-07-31T14:29:09;22.20;66.30
72905;DHT22;61048;52.162;4.516;2023-07-31T14:31:36;22.20;66.30
72905;DHT22;61048;52.162;4.516;2023-07-31T14:34:03;22.20;66.30
72905;DHT22;61048;52.162;4.516;2023-07-31T14:36:29;22.20;66.40
72905;DHT22;61048;52.162;4.516;2023-07-31T14:38:56;22.20;66.30
72905;DHT22;61048;52.162;4.516;2023-07-31T14:41:23;22.20;66.40
72905;DHT22;61048;52.162;4.516;2023-07-31T14:43:51;22.20;66.30
72905;DHT22;61048;52.162;4.516;2023-07-31T14:46:18;22.10;66.40
72905;DHT22;61048;52.162;4.516;2023-07-31T14:48:45;22.20;66.30
72905;DHT22;61048;52.162;4.516;2023-07-31T14:51:12;22.20;66.30
72905;DHT22;61048;52.162;4.516;2023-07-31T14:53:40;22.20;66.30
72905;DHT22;61048;52.162;4.516;2023-07-31T14:56:06;22.20;66.30
72905;DHT22;61048;52.162;4.516;2023-07-31T14:58:33;22.10;66.30
72905;DHT22;61048;52.162;4.516;2023-07-31T15:01:02;22.20;66.30
72905;DHT22;61048;52.162;4.516;2023-07-31T15:03:29;22.10;66.30
72905;DHT22;61048;52.162;4.516;2023-07-31T15:05:55;22.20;66.40
72905;DHT22;61048;52.162;4.516;2023-07-31T15:08:22;22.20;66.40
72905;DHT22;61048;52.162;4.516;2023-07-31T15:10:49;22.10;66.40
72905;DHT22;61048;52.162;4.516;2023-07-31T15:13:22;22.10;66.40
72905;DHT22;61048;52.162;4.516;2023-07-31T15:15:49;22.10;66.30
72905;DHT22;61048;52.162;4.516;2023-07-31T15:18:18;22.10;66.40
72905;DHT22;61048;52.162;4.516;2023-07-31T15:20:45;22.10;66.40
72905;DHT22;61048;52.162;4.516;2023-07-31T15:23:12;22.10;66.30
72905;DHT22;61048;52.162;4.516;2023-07-31T15:25:39;22.10;66.40
72905;DHT22;61048;52.162;4.516;2023-07-31T15:28:06;22.10;66.40
72905;DHT22;61048;52.162;4.516;2023-07-31T15:30:35;22.10;66.40
72905;DHT22;61048;52.162;4.516;2023-07-31T15:33:02;22.10;66.40
72905;DHT22;61048;52.162;4.516;2023-07-31T15:35:31;22.10;66.40
72905;DHT22;61048;52.162;4.516;2023-07-31T15:37:57;22.10;66.40
72905;DHT22;61048;52.162;4.516;2023-07-31T15:40:24;22.10;66.40
72905;DHT22;61048;52.162;4.516;2023-07-31T15:42:51;22.10;66.40
72905;DHT22;61048;52.162;4.516;2023-07-31T15:45:18;22.10;66.40
72905;DHT22;61048;52.162;4.516;2023-07-31T15:47:45;22.10;66.40
72905;DHT22;61048;52.162;4.516;2023-07-31T15:50:12;22.10;66.40
72905;DHT22;61048;52.162;4.516;2023-07-31T15:52:40;22.00;66.40
72905;DHT22;61048;52.162;4.516;2023-07-31T15:55:08;22.10;66.40
72905;DHT22;61048;52.162;4.516;2023-07-31T15:57:35;22.10;66.50
72905;DHT22;61048;52.162;4.516;2023-07-31T16:00:03;22.00;66.50
72905;DHT22;61048;52.162;4.516;2023-07-31T16:02:30;22.00;66.50
72905;DHT22;61048;52.162;4.516;2023-07-31T16:04:56;22.10;66.50
72905;DHT22;61048;52.162;4.516;2023-07-31T16:07:23;22.10;66.50
72905;DHT22;61048;52.162;4.516;2023-07-31T16:09:52;22.10;66.50
72905;DHT22;61048;52.162;4.516;2023-07-31T16:12:19;22.00;66.50
72905;DHT22;61048;52.162;4.516;2023-07-31T16:14:45;22.00;66.40
72905;DHT22;61048;52.162;4.516;2023-07-31T16:17:12;22.00;66.50
72905;DHT22;61048;52.162;4.516;2023-07-31T16:19:39;22.00;66.50
72905;DHT22;61048;52.162;4.516;2023-07-31T16:22:06;22.00;66.50
72905;DHT22;61048;52.162;4.516;2023-07-31T16:24:34;22.00;66.50
72905;DHT22;61048;52.162;4.516;2023-07-31T16:27:03;22.00;66.60
72905;DHT22;61048;52.162;4.516;2023-07-31T16:29:30;22.00;66.70
72905;DHT22;61048;52.162;4.516;2023-07-31T16:31:57;22.00;66.60
72905;DHT22;61048;52.162;4.516;2023-07-31T16:34:24;22.00;66.70
72905;DHT22;61048;52.162;4.516;2023-07-31T16:36:51;22.00;66.70
72905;DHT22;61048;52.162;4.516;2023-07-31T16:39:20;22.00;66.70
72905;DHT22;61048;52.162;4.516;2023-07-31T16:41:47;22.00;66.70
72905;DHT22;61048;52.162;4.516;2023-07-31T16:44:15;22.00;66.70
72905;DHT22;61048;52.162;4.516;2023-07-31T16:46:42;22.00;66.70
72905;DHT22;61048;52.162;4.516;2023-07-31T16:49:09;22.00;66.70
72905;DHT22;61048;52.162;4.516;2023-07-31T16:54:03;22.30;67.70
72905;DHT22;61048;52.162;4.516;2023-07-31T16:56:30;22.00;68.00
72905;DHT22;61048;52.162;4.516;2023-07-31T16:58:57;21.90;67.50
72905;DHT22;61048;52.162;4.516;2023-07-31T17:01:25;22.00;67.30
72905;DHT22;61048;52.162;4.516;2023-07-31T17:03:56;22.00;67.30
72905;DHT22;61048;52.162;4.516;2023-07-31T17:06:25;22.00;67.30